createdAt,value
2023-05-08T00:00:14.312Z,12.0207
2023-05-08T00:01:14.339Z,11.9605
2023-05-08T00:02:14.974Z,11.9628
2023-05-08T00:03:15.472Z,11.9885
2023-05-08T00:04:16.506Z,12.0406
2023-05-08T00:06:17.484Z,12.0511
2023-05-08T00:07:18.249Z,12.0521
2023-05-08T00:08:19.736Z,12.0591
2023-05-08T00:09:20.251Z,12.0069
2023-05-08T00:10:20.982Z,11.9908
2023-05-08T00:11:22.212Z,11.9899
2023-05-08T00:16:05.150Z,12.0519
2023-05-08T00:17:05.309Z,12.0503
2023-05-08T00:18:06.824Z,12.0130
2023-05-08T00:19:07.911Z,12.0282
2023-05-08T00:20:09.036Z,12.0178
2023-05-08T00:21:09.164Z,12.0004
2023-05-08T00:22:09.886Z,11.9760
2023-05-08T00:23:10.998Z,11.9568
2023-05-08T00:24:12.323Z,11.9438
2023-05-08T00:25:12.578Z,11.9306
2023-05-08T00:26:13.711Z,11.9345
2023-05-08T00:27:14.239Z,11.9574
2023-05-08T00:28:15.135Z,11.9707
2023-05-08T00:29:15.195Z,11.9530
2023-05-08T00:30:16.907Z,11.9807
2023-05-08T00:31:16.634Z,12.0060
2023-05-08T00:32:16.965Z,12.0228
2023-05-08T00:33:18.909Z,11.9888
2023-05-08T00:36:43.723Z,11.9162
2023-05-08T00:37:43.811Z,11.9074
2023-05-08T00:38:44.649Z,11.9309
2023-05-08T00:39:45.484Z,11.9383
2023-05-08T00:40:46.168Z,11.9339
2023-05-08T00:41:47.112Z,11.9414
2023-05-08T00:42:48.228Z,11.9166
2023-05-08T00:43:49.022Z,11.9021
2023-05-08T00:44:50.799Z,11.9219
2023-05-08T00:45:51.731Z,11.8822
2023-05-08T00:46:52.708Z,11.8989
2023-05-08T00:47:53.710Z,11.8973
2023-05-08T00:48:54.390Z,11.8751
2023-05-08T00:49:56.387Z,11.8820
2023-05-08T00:51:01.915Z,11.8743
2023-05-08T00:51:59.208Z,11.8931
2023-05-08T00:53:00.021Z,11.9105
2023-05-08T00:54:01.225Z,11.8978
2023-05-08T00:55:02.414Z,11.9195
2023-05-08T00:56:03.751Z,11.9090
2023-05-08T00:57:05.133Z,11.8746
2023-05-08T00:58:06.000Z,11.8445
2023-05-08T00:59:07.289Z,11.8338
2023-05-08T01:00:08.222Z,11.8320
2023-05-08T01:01:09.574Z,11.8212
2023-05-08T01:02:11.344Z,11.8187
2023-05-08T01:04:12.747Z,11.8655
2023-05-08T01:05:12.998Z,11.8985
2023-05-08T01:08:03.853Z,11.8520
2023-05-08T01:09:04.477Z,11.8912
2023-05-08T01:10:04.561Z,11.9585
2023-05-08T01:11:06.145Z,11.9163
2023-05-08T01:12:06.110Z,11.9341
2023-05-08T01:13:06.213Z,11.9449
2023-05-08T01:14:06.814Z,11.9533
2023-05-08T01:15:08.435Z,11.9556
2023-05-08T01:16:09.473Z,11.8864
2023-05-08T01:17:09.826Z,11.8654
2023-05-08T01:18:09.847Z,11.8921
2023-05-08T01:19:10.870Z,11.9059
2023-05-08T01:20:12.159Z,11.9529
2023-05-08T01:21:12.213Z,11.9444
2023-05-08T01:22:12.641Z,11.9478
2023-05-08T01:23:14.132Z,11.9420
2023-05-08T01:24:15.012Z,11.9525
2023-05-08T01:25:16.011Z,11.9432
2023-05-08T01:26:16.391Z,11.8828
2023-05-08T01:27:17.393Z,11.8880
2023-05-08T01:28:17.515Z,11.8908
2023-05-08T01:29:18.989Z,11.8772
2023-05-08T01:30:19.133Z,11.8667
2023-05-08T01:32:19.057Z,11.8201
2023-05-08T01:33:20.486Z,11.8261
2023-05-08T01:36:21.619Z,11.7942
2023-05-08T01:37:22.282Z,11.8411
2023-05-08T01:38:22.631Z,11.8514
2023-05-08T01:39:23.549Z,11.8603
2023-05-08T01:40:24.098Z,11.8804
2023-05-08T01:41:25.608Z,11.7947
2023-05-08T01:42:26.365Z,11.7614
2023-05-08T01:43:27.434Z,11.7690
2023-05-08T01:44:28.507Z,11.7851
2023-05-08T01:45:29.588Z,11.7885
2023-05-08T01:46:30.702Z,11.7638
2023-05-08T01:51:02.068Z,11.7588
2023-05-08T01:52:02.103Z,11.7550
2023-05-08T01:53:03.190Z,11.7509
2023-05-08T01:55:04.653Z,11.7882
2023-05-08T01:56:04.738Z,11.7935
2023-05-08T01:57:06.068Z,11.8258
2023-05-08T01:58:06.789Z,11.8058
2023-05-08T01:59:06.793Z,11.8221
2023-05-08T02:00:07.974Z,11.8382
2023-05-08T02:02:08.391Z,11.8223
2023-05-08T02:03:08.762Z,11.8082
2023-05-08T02:04:10.331Z,11.8047
2023-05-08T02:06:10.886Z,11.8134
2023-05-08T02:07:11.370Z,11.8254
2023-05-08T02:08:12.668Z,11.8286
2023-05-08T02:09:13.177Z,11.8409
2023-05-08T02:10:14.362Z,11.8268
2023-05-08T02:12:14.492Z,11.7946
2023-05-08T02:13:16.308Z,11.8078
2023-05-08T02:14:16.963Z,11.8061
2023-05-08T02:15:18.312Z,11.7993
2023-05-08T02:16:19.426Z,11.7889
2023-05-08T02:25:29.223Z,11.9207
2023-05-08T02:26:29.866Z,11.9411
2023-05-08T02:27:30.369Z,11.9406
2023-05-08T02:28:31.273Z,11.9458
2023-05-08T02:29:32.291Z,11.9534
2023-05-08T02:30:32.579Z,11.9710
2023-05-08T02:31:33.690Z,11.9377
2023-05-08T02:32:34.477Z,11.9527
2023-05-08T02:33:35.140Z,11.9432
2023-05-08T02:34:35.223Z,11.9560
2023-05-08T02:35:35.171Z,11.9673
2023-05-08T02:36:35.228Z,11.9401
2023-05-08T02:37:36.139Z,11.9059
2023-05-08T02:38:38.683Z,11.8855
2023-05-08T02:39:38.625Z,11.8876
2023-05-08T02:40:39.842Z,11.9153
2023-05-08T02:41:40.094Z,11.8946
2023-05-08T02:42:41.294Z,11.8989
2023-05-08T02:43:43.443Z,11.9069
2023-05-08T02:44:43.616Z,11.9328
2023-05-08T02:45:44.005Z,11.9399
2023-05-08T02:46:45.254Z,11.9530
2023-05-08T02:47:44.869Z,11.9363
2023-05-08T02:48:45.407Z,11.9366
2023-05-08T02:49:46.257Z,11.9246
2023-05-08T02:50:47.894Z,11.9293
2023-05-08T02:51:48.649Z,11.9385
2023-05-08T02:52:48.295Z,11.9489
2023-05-08T02:53:49.569Z,11.9450
2023-05-08T02:54:49.846Z,11.9573
2023-05-08T02:55:50.090Z,11.9573
2023-05-08T02:56:50.359Z,11.9192
2023-05-08T02:57:51.005Z,11.9048
2023-05-08T02:58:51.917Z,11.9192
2023-05-08T02:59:52.680Z,11.9438
2023-05-08T03:00:52.719Z,11.9801
2023-05-08T03:01:53.836Z,11.9984
2023-05-08T03:02:53.971Z,12.0322
2023-05-08T03:03:55.054Z,12.0291
2023-05-08T03:04:55.984Z,12.0113
2023-05-08T03:05:56.737Z,11.9817
2023-05-08T03:06:57.400Z,11.9773
2023-05-08T03:07:57.951Z,11.9590
2023-05-08T03:08:58.009Z,11.9476
2023-05-08T03:09:58.931Z,11.9435
2023-05-08T03:10:59.358Z,11.9480
2023-05-08T03:11:59.574Z,11.9478
2023-05-08T03:13:00.292Z,11.9549
2023-05-08T03:14:01.274Z,11.9546
2023-05-08T03:19:04.661Z,11.9872
2023-05-08T03:20:04.836Z,11.9215
2023-05-08T03:21:04.894Z,11.9225
2023-05-08T03:22:06.008Z,11.9244
2023-05-08T03:23:07.490Z,11.9224
2023-05-08T03:24:07.849Z,11.9356
2023-05-08T03:25:08.272Z,11.9521
2023-05-08T03:26:09.768Z,11.9653
2023-05-08T03:29:10.790Z,11.9896
2023-05-08T03:33:12.765Z,12.0846
2023-05-08T03:34:13.530Z,12.1004
2023-05-08T03:35:14.715Z,12.1059
2023-05-08T03:36:15.597Z,12.0809
2023-05-08T03:37:16.104Z,12.0813
2023-05-08T03:38:17.433Z,12.0718
2023-05-08T03:39:17.857Z,12.0382
2023-05-08T03:40:17.910Z,12.0227
2023-05-08T03:41:19.118Z,12.0263
2023-05-08T03:42:20.254Z,12.0399
2023-05-08T03:43:21.019Z,12.0433
2023-05-08T03:44:21.035Z,12.0442
2023-05-08T03:45:22.100Z,12.0425
2023-05-08T03:46:23.567Z,12.0540
2023-05-08T03:47:23.780Z,12.0583
2023-05-08T03:48:24.123Z,12.0617
2023-05-08T03:49:25.990Z,12.0624
2023-05-08T03:50:26.811Z,12.0809
2023-05-08T03:51:29.414Z,12.1023
2023-05-08T03:54:30.712Z,12.1185
2023-05-08T03:55:31.942Z,12.1416
2023-05-08T03:56:32.671Z,12.1222
2023-05-08T03:57:32.745Z,12.1120
2023-05-08T03:58:33.623Z,12.1331
2023-05-08T03:59:33.761Z,12.1161
2023-05-08T04:00:34.570Z,12.1186
2023-05-08T04:01:35.725Z,12.1323
2023-05-08T04:02:36.708Z,12.1434
2023-05-08T04:03:36.789Z,12.1435
2023-05-08T04:04:38.076Z,12.1601
2023-05-08T04:05:38.279Z,12.1608
2023-05-08T04:06:49.356Z,12.1705
2023-05-08T04:07:43.330Z,12.1308
2023-05-08T04:09:43.083Z,12.1541
2023-05-08T04:10:44.664Z,12.1446
2023-05-08T04:12:44.413Z,12.0892
2023-05-08T04:13:45.905Z,12.0736
2023-05-08T04:14:47.007Z,12.0397
2023-05-08T04:15:48.049Z,12.0444
2023-05-08T04:16:50.156Z,12.0800
2023-05-08T04:17:50.199Z,12.0877
2023-05-08T04:18:50.564Z,12.0814
2023-05-08T04:19:51.257Z,12.0890
2023-05-08T04:21:51.643Z,12.1035
2023-05-08T04:23:52.581Z,12.0862
2023-05-08T04:24:52.830Z,12.1094
2023-05-08T04:25:53.865Z,12.1316
2023-05-08T04:27:54.134Z,12.1334
2023-05-08T04:29:55.512Z,12.1068
2023-05-08T04:30:55.940Z,12.0853
2023-05-08T04:31:56.794Z,12.0940
2023-05-08T04:32:57.761Z,12.0667
2023-05-08T04:33:57.830Z,12.0519
2023-05-08T04:34:58.767Z,12.0837
2023-05-08T04:37:00.272Z,12.1105
2023-05-08T04:39:01.081Z,12.0387
2023-05-08T04:41:01.242Z,12.0323
2023-05-08T04:43:02.139Z,12.0602
2023-05-08T04:44:02.888Z,12.1250
2023-05-08T04:45:05.278Z,12.1315
2023-05-08T04:46:06.933Z,12.1602
2023-05-08T04:48:07.766Z,12.1742
2023-05-08T04:49:09.453Z,12.1441
2023-05-08T04:50:10.049Z,12.1530
2023-05-08T04:51:10.228Z,12.1611
2023-05-08T04:52:11.487Z,12.1559
2023-05-08T04:53:12.432Z,12.1456
2023-05-08T04:54:12.685Z,12.1686
2023-05-08T04:55:13.963Z,12.1828
2023-05-08T04:57:13.879Z,12.1854
2023-05-08T04:59:16.060Z,12.1845
2023-05-08T05:00:15.456Z,12.1922
2023-05-08T05:01:15.926Z,12.1751
2023-05-08T05:02:17.095Z,12.1572
2023-05-08T05:03:17.651Z,12.1662
2023-05-08T05:04:18.948Z,12.1660
2023-05-08T05:05:21.007Z,12.1500
2023-05-08T05:06:28.524Z,12.1455
2023-05-08T05:07:22.440Z,12.1461
2023-05-08T05:09:13.086Z,12.1401
2023-05-08T05:11:14.521Z,12.1423
2023-05-08T05:13:15.221Z,12.1639
2023-05-08T05:15:15.799Z,12.1678
2023-05-08T05:17:16.906Z,12.0542
2023-05-08T05:19:17.834Z,12.0888
2023-05-08T05:20:18.769Z,12.1008
2023-05-08T05:21:19.911Z,12.1052
2023-05-08T05:22:20.576Z,12.1152
2023-05-08T05:23:21.850Z,12.1199
2023-05-08T05:25:22.036Z,12.1275
2023-05-08T05:26:22.397Z,12.1445
2023-05-08T05:27:23.503Z,12.1529
2023-05-08T05:28:23.684Z,12.1542
2023-05-08T05:29:24.820Z,12.1702
2023-05-08T05:30:25.465Z,12.1812
2023-05-08T05:31:27.418Z,12.1715
2023-05-08T05:32:27.406Z,12.1627
2023-05-08T05:33:28.315Z,12.1835
2023-05-08T05:34:29.664Z,12.1751
2023-05-08T05:36:30.530Z,12.1624
2023-05-08T05:38:30.389Z,12.2432
2023-05-08T05:39:30.885Z,12.2403
2023-05-08T05:40:32.230Z,12.2483
2023-05-08T05:42:33.051Z,12.2799
2023-05-08T05:44:33.312Z,12.3283
2023-05-08T05:45:36.690Z,12.3672
2023-05-08T05:46:37.403Z,12.3535
2023-05-08T05:47:38.515Z,12.3428
2023-05-08T05:48:38.746Z,12.3475
2023-05-08T05:49:40.871Z,12.3593
2023-05-08T05:51:41.278Z,12.3971
2023-05-08T05:52:42.943Z,12.4072
2023-05-08T05:53:43.803Z,12.4195
2023-05-08T05:56:45.774Z,12.4651
2023-05-08T05:59:47.109Z,12.5119
2023-05-08T06:00:47.732Z,12.5401
2023-05-08T06:01:47.804Z,12.5694
2023-05-08T06:02:49.041Z,12.5729
2023-05-08T06:03:49.485Z,12.5949
2023-05-08T06:04:50.317Z,12.5978
2023-05-08T06:05:50.366Z,12.5909
2023-05-08T06:06:51.396Z,12.5879
2023-05-08T06:07:51.978Z,12.6089
2023-05-08T06:08:53.440Z,12.6131
2023-05-08T06:09:53.702Z,12.6043
2023-05-08T06:10:54.550Z,12.6120
2023-05-08T06:11:55.529Z,12.5874
2023-05-08T06:12:55.979Z,12.5146
2023-05-08T06:13:57.094Z,12.5291
2023-05-08T06:14:57.727Z,12.5239
2023-05-08T06:16:02.711Z,12.5334
2023-05-08T06:16:58.968Z,12.5601
2023-05-08T06:17:59.759Z,12.5647
2023-05-08T06:19:00.511Z,12.5653
2023-05-08T06:20:00.824Z,12.5610
2023-05-08T06:21:01.917Z,12.5619
2023-05-08T06:22:03.728Z,12.5611
2023-05-08T06:23:04.308Z,12.4979
2023-05-08T06:24:04.948Z,12.5006
2023-05-08T06:25:06.130Z,12.5224
2023-05-08T06:26:07.298Z,12.5605
2023-05-08T06:27:07.664Z,12.5923
2023-05-08T06:28:08.012Z,12.6071
2023-05-08T06:29:08.244Z,12.6344
2023-05-08T06:30:08.425Z,12.6544
2023-05-08T06:31:09.009Z,12.6622
2023-05-08T06:32:09.554Z,12.6516
2023-05-08T06:33:10.291Z,12.6632
2023-05-08T06:34:10.880Z,12.6828
2023-05-08T06:35:11.089Z,12.6918
2023-05-08T06:36:11.177Z,12.6870
2023-05-08T06:37:11.358Z,12.6833
2023-05-08T06:38:11.483Z,12.6997
2023-05-08T06:39:11.726Z,12.7124
2023-05-08T06:40:13.084Z,12.7086
2023-05-08T06:41:15.184Z,12.7213
2023-05-08T06:42:14.122Z,12.6803
2023-05-08T06:43:14.423Z,12.6597
2023-05-08T06:44:14.556Z,12.6726
2023-05-08T06:45:16.100Z,12.6643
2023-05-08T06:46:15.826Z,12.6691
2023-05-08T06:47:16.507Z,12.6710
2023-05-08T06:48:17.093Z,12.6723
2023-05-08T06:49:17.556Z,12.6605
2023-05-08T06:50:17.861Z,12.6797
2023-05-08T06:51:18.171Z,12.6848
2023-05-08T06:52:18.361Z,12.6886
2023-05-08T06:53:18.470Z,12.7063
2023-05-08T06:54:18.552Z,12.6944
2023-05-08T06:55:19.502Z,12.6822
2023-05-08T06:56:19.697Z,12.6630
2023-05-08T06:57:20.089Z,12.6488
2023-05-08T06:58:20.295Z,12.6495
2023-05-08T06:59:21.099Z,12.6569
2023-05-08T07:00:21.511Z,12.6726
2023-05-08T07:01:21.783Z,12.6586
2023-05-08T07:02:22.590Z,12.6342
2023-05-08T07:03:23.210Z,12.5883
2023-05-08T07:04:23.571Z,12.5761
2023-05-08T07:05:24.728Z,12.6029
2023-05-08T07:06:24.908Z,12.5874
2023-05-08T07:07:25.283Z,12.5767
2023-05-08T07:08:25.985Z,12.5652
2023-05-08T07:09:26.428Z,12.5998
2023-05-08T07:10:26.811Z,12.6393
2023-05-08T07:11:26.927Z,12.6687
2023-05-08T07:12:27.249Z,12.6699
2023-05-08T07:13:28.249Z,12.7525
2023-05-08T07:14:28.758Z,12.7536
2023-05-08T07:15:30.142Z,12.7652
2023-05-08T07:16:31.280Z,12.8244
2023-05-08T07:17:32.026Z,12.8366
2023-05-08T07:18:32.329Z,12.9332
2023-05-08T07:19:33.191Z,12.9493
2023-05-08T07:20:33.753Z,12.9024
2023-05-08T07:21:34.110Z,12.8316
2023-05-08T07:22:34.441Z,12.9036
2023-05-08T07:23:34.693Z,12.9556
2023-05-08T07:24:34.781Z,13.0175
2023-05-08T07:25:35.002Z,13.0538
2023-05-08T07:26:35.014Z,13.0908
2023-05-08T07:27:35.202Z,13.1264
2023-05-08T07:28:35.336Z,13.1702
2023-05-08T07:29:35.717Z,13.2167
2023-05-08T07:30:35.797Z,13.2255
2023-05-08T07:31:36.255Z,13.2352
2023-05-08T07:32:36.759Z,13.2286
2023-05-08T07:33:37.108Z,13.2455
2023-05-08T07:34:37.397Z,13.2539
2023-05-08T07:35:38.678Z,13.1940
2023-05-08T07:36:38.930Z,13.2083
2023-05-08T07:37:55.599Z,13.2325
2023-05-08T07:39:18.845Z,13.2549
2023-05-08T07:40:11.338Z,13.2747
2023-05-08T07:41:11.519Z,13.2640
2023-05-08T07:42:12.671Z,13.2523
2023-05-08T07:43:13.225Z,13.1989
2023-05-08T07:44:13.674Z,13.2311
2023-05-08T07:45:14.613Z,13.2389
2023-05-08T07:46:14.515Z,13.2689
2023-05-08T07:47:15.613Z,13.2995
2023-05-08T07:48:21.125Z,13.3070
2023-05-08T07:49:20.947Z,13.3377
2023-05-08T07:51:20.062Z,13.3866
2023-05-08T07:52:20.973Z,13.4039
2023-05-08T07:53:22.809Z,13.3979
2023-05-08T07:54:26.718Z,13.4525
2023-05-08T07:56:25.049Z,13.2550
2023-05-08T07:57:24.952Z,13.3487
2023-05-08T07:58:25.871Z,13.4183
2023-05-08T07:59:27.264Z,13.4317
2023-05-08T08:00:28.316Z,13.4925
2023-05-08T08:02:29.739Z,13.5737
2023-05-08T08:04:31.266Z,13.4344
2023-05-08T08:05:32.657Z,13.5114
2023-05-08T08:06:32.596Z,13.5165
2023-05-08T08:08:34.097Z,13.4654
2023-05-08T08:09:34.148Z,13.4860
2023-05-08T08:10:34.119Z,13.5136
2023-05-08T08:13:37.299Z,13.6378
2023-05-08T08:15:37.331Z,13.6952
2023-05-08T08:16:37.778Z,13.7252
2023-05-08T08:17:38.118Z,13.7817
2023-05-08T08:18:39.442Z,13.8316
2023-05-08T08:19:40.049Z,13.8040
2023-05-08T08:20:41.010Z,13.7941
2023-05-08T08:21:41.081Z,13.9020
2023-05-08T08:22:41.424Z,13.8932
2023-05-08T08:23:41.877Z,13.9338
2023-05-08T08:24:42.252Z,13.9483
2023-05-08T08:25:43.167Z,13.9107
2023-05-08T08:26:43.569Z,13.8942
2023-05-08T08:27:43.819Z,13.8928
2023-05-08T08:28:44.219Z,13.9403
2023-05-08T08:29:44.673Z,13.9605
2023-05-08T08:30:44.909Z,14.0359
2023-05-08T08:31:45.623Z,14.0801
2023-05-08T08:32:46.798Z,14.1622
2023-05-08T08:33:47.708Z,14.0829
2023-05-08T08:34:48.137Z,14.1506
2023-05-08T08:35:48.616Z,14.1526
2023-05-08T08:36:48.909Z,14.1390
2023-05-08T08:37:49.115Z,14.2062
2023-05-08T08:38:50.225Z,14.1852
2023-05-08T08:39:50.195Z,14.1279
2023-05-08T08:40:50.575Z,14.1374
2023-05-08T08:41:50.810Z,14.1066
2023-05-08T08:42:51.116Z,14.1396
2023-05-08T08:43:51.336Z,14.2101
2023-05-08T08:44:51.886Z,14.2380
2023-05-08T08:45:52.092Z,14.2924
2023-05-08T08:46:52.364Z,14.2480
2023-05-08T08:47:53.428Z,14.3320
2023-05-08T08:48:53.678Z,14.4069
2023-05-08T08:49:54.054Z,14.3331
2023-05-08T08:50:55.310Z,14.4119
2023-05-08T08:51:55.611Z,14.3723
2023-05-08T08:52:55.968Z,14.5267
2023-05-08T08:53:56.327Z,14.4878
2023-05-08T08:54:56.618Z,14.5867
2023-05-08T08:55:57.083Z,14.7026
2023-05-08T08:56:57.605Z,14.7885
2023-05-08T08:57:57.766Z,14.9010
2023-05-08T08:58:58.224Z,14.9301
2023-05-08T08:59:58.831Z,14.8173
2023-05-08T09:00:59.478Z,14.8405
2023-05-08T09:02:00.236Z,14.7749
2023-05-08T09:03:01.391Z,14.8472
2023-05-08T09:04:01.359Z,14.7771
2023-05-08T09:05:02.123Z,14.8562
2023-05-08T09:06:03.238Z,14.7033
2023-05-08T09:07:03.910Z,14.7613
2023-05-08T09:08:04.108Z,14.7771
2023-05-08T09:09:04.543Z,14.7595
2023-05-08T09:10:04.864Z,14.8121
2023-05-08T09:11:05.153Z,14.6785
2023-05-08T09:12:05.790Z,14.6661
2023-05-08T09:13:06.135Z,14.8227
2023-05-08T09:14:07.361Z,14.7425
2023-05-08T09:15:07.856Z,14.7799
2023-05-08T09:16:09.466Z,14.8020
2023-05-08T09:17:10.717Z,14.7958
2023-05-08T09:18:11.282Z,14.8824
2023-05-08T09:19:11.784Z,14.9453
2023-05-08T09:20:12.167Z,15.0723
2023-05-08T09:21:12.333Z,15.0906
2023-05-08T09:22:12.589Z,15.0759
2023-05-08T09:23:12.912Z,15.1422
2023-05-08T09:24:13.386Z,15.0730
2023-05-08T09:25:14.034Z,15.1004
2023-05-08T09:26:14.302Z,15.1537
2023-05-08T09:27:14.926Z,15.1313
2023-05-08T09:28:15.368Z,15.1071
2023-05-08T09:29:15.802Z,15.1183
2023-05-08T09:30:16.716Z,15.1769
2023-05-08T09:31:17.000Z,15.1859
2023-05-08T09:32:17.422Z,15.1685
2023-05-08T09:33:18.069Z,15.2894
2023-05-08T09:34:19.225Z,15.4002
2023-05-08T09:35:19.421Z,15.4743
2023-05-08T09:36:19.926Z,15.4536
2023-05-08T09:37:20.282Z,15.3916
2023-05-08T09:38:20.464Z,15.4059
2023-05-08T09:39:20.861Z,15.3487
2023-05-08T09:40:21.269Z,15.2465
2023-05-08T09:41:22.013Z,15.2529
2023-05-08T09:42:22.273Z,15.1219
2023-05-08T09:43:22.779Z,15.0806
2023-05-08T09:44:23.251Z,15.1064
2023-05-08T09:45:24.275Z,15.2256
2023-05-08T09:46:24.857Z,15.2507
2023-05-08T09:47:25.897Z,15.3127
2023-05-08T09:48:26.530Z,15.2437
2023-05-08T09:49:26.905Z,15.2015
2023-05-08T09:50:28.116Z,15.2803
2023-05-08T09:51:28.755Z,15.1677
2023-05-08T09:52:29.144Z,15.2373
2023-05-08T09:53:29.624Z,15.3468
2023-05-08T09:54:30.016Z,15.3652
2023-05-08T09:55:30.295Z,15.2408
2023-05-08T09:56:30.748Z,15.2620
2023-05-08T09:57:31.161Z,15.2985
2023-05-08T09:58:31.963Z,15.3140
2023-05-08T09:59:34.250Z,15.3557
2023-05-08T10:00:32.756Z,15.2628
2023-05-08T10:01:33.338Z,15.2608
2023-05-08T10:02:33.974Z,15.3365
2023-05-08T10:03:35.101Z,15.2081
2023-05-08T10:04:36.010Z,15.2209
2023-05-08T10:05:36.574Z,15.3549
2023-05-08T10:06:36.848Z,15.4814
2023-05-08T10:07:37.307Z,15.5766
2023-05-08T10:08:37.786Z,15.5378
2023-05-08T10:09:49.714Z,15.5654
2023-05-08T10:10:39.331Z,15.5962
2023-05-08T10:11:39.794Z,15.4271
2023-05-08T10:12:40.038Z,15.3762
2023-05-08T10:13:40.996Z,15.6030
2023-05-08T10:14:43.123Z,15.6963
2023-05-08T10:15:43.078Z,15.8424
2023-05-08T10:16:43.907Z,15.9180
2023-05-08T10:17:44.824Z,15.8700
2023-05-08T10:18:45.187Z,15.7153
2023-05-08T10:19:45.725Z,15.6564
2023-05-08T10:20:46.714Z,15.7978
2023-05-08T10:21:47.193Z,15.8100
2023-05-08T10:22:47.427Z,15.8576
2023-05-08T10:23:47.806Z,16.0468
2023-05-08T10:24:48.129Z,15.8644
2023-05-08T10:25:48.606Z,15.8164
2023-05-08T10:27:05.109Z,16.0025
2023-05-08T10:27:51.138Z,16.2062
2023-05-08T10:28:51.450Z,15.8601
2023-05-08T10:29:51.938Z,15.7717
2023-05-08T10:30:52.376Z,15.8264
2023-05-08T10:31:53.249Z,15.8188
2023-05-08T10:32:53.887Z,15.7599
2023-05-08T10:33:54.463Z,15.9251
2023-05-08T10:34:54.594Z,16.0434
2023-05-08T10:35:54.905Z,16.2004
2023-05-08T10:36:55.890Z,16.2640
2023-05-08T10:37:56.412Z,16.1604
2023-05-08T10:38:56.879Z,16.1128
2023-05-08T10:39:57.181Z,16.1518
2023-05-08T10:40:57.785Z,16.1238
2023-05-08T10:41:58.316Z,16.1634
2023-05-08T10:42:58.728Z,16.1231
2023-05-08T10:44:01.072Z,16.0810
2023-05-08T10:45:00.047Z,16.1238
2023-05-08T10:46:00.712Z,16.1718
2023-05-08T10:47:01.387Z,16.2510
2023-05-08T10:48:02.083Z,16.3467
2023-05-08T10:49:02.745Z,16.4825
2023-05-08T10:50:02.943Z,16.5305
2023-05-08T10:51:04.078Z,16.5719
2023-05-08T10:52:04.295Z,16.6190
2023-05-08T10:53:04.856Z,16.5803
2023-05-08T10:54:05.311Z,16.6662
2023-05-08T10:55:05.976Z,16.7983
2023-05-08T10:56:06.164Z,17.0088
2023-05-08T10:58:26.735Z,17.3434
2023-05-08T10:59:27.649Z,17.1438
2023-05-08T11:00:28.400Z,17.0629
2023-05-08T11:01:28.669Z,17.0525
2023-05-08T11:02:29.710Z,16.9219
2023-05-08T11:03:32.627Z,16.9600
2023-05-08T11:04:31.487Z,16.7655
2023-05-08T11:05:32.157Z,16.8175
2023-05-08T11:06:32.626Z,17.0034
2023-05-08T11:07:33.299Z,16.8659
2023-05-08T11:08:33.825Z,16.8848
2023-05-08T11:09:34.179Z,17.0348
2023-05-08T11:10:34.944Z,17.2002
2023-05-08T11:11:35.611Z,17.1857
2023-05-08T11:12:36.177Z,17.0240
2023-05-08T11:13:37.138Z,16.9235
2023-05-08T11:14:37.536Z,17.0678
2023-05-08T11:15:38.120Z,17.2208
2023-05-08T11:16:39.130Z,17.2211
2023-05-08T11:17:40.321Z,17.3390
2023-05-08T11:18:49.549Z,17.3779
2023-05-08T11:19:46.403Z,17.4698
2023-05-08T11:20:47.449Z,17.1967
2023-05-08T11:21:48.006Z,16.8754
2023-05-08T11:22:48.585Z,16.9206
2023-05-08T11:23:48.814Z,16.9088
2023-05-08T11:24:49.342Z,16.8620
2023-05-08T11:25:49.878Z,16.6978
2023-05-08T11:26:50.434Z,16.6191
2023-05-08T11:27:50.969Z,16.6056
2023-05-08T11:28:51.539Z,16.5576
2023-05-08T11:29:52.193Z,16.4043
2023-05-08T11:30:52.982Z,16.2622
2023-05-08T11:31:54.107Z,16.3457
2023-05-08T11:32:54.970Z,16.3528
2023-05-08T11:33:55.584Z,16.3464
2023-05-08T11:34:56.923Z,16.3812
2023-05-08T11:35:57.582Z,16.3258
2023-05-08T11:36:58.182Z,16.3053
2023-05-08T11:37:58.609Z,16.3918
2023-05-08T11:38:59.229Z,16.4205
2023-05-08T11:39:59.862Z,16.4092
2023-05-08T11:41:00.563Z,16.4394
2023-05-08T11:42:00.972Z,16.5073
2023-05-08T11:43:01.481Z,16.5979
2023-05-08T11:44:02.042Z,16.6809
2023-05-08T11:45:02.922Z,16.7734
2023-05-08T11:46:03.515Z,16.8331
2023-05-08T11:47:04.614Z,16.8673
2023-05-08T11:48:05.617Z,16.8915
2023-05-08T11:49:06.173Z,16.9467
2023-05-08T11:50:06.376Z,17.1840
2023-05-08T11:51:06.986Z,17.2062
2023-05-08T11:52:07.562Z,17.0601
2023-05-08T11:53:08.162Z,17.0015
2023-05-08T11:54:08.540Z,17.0606
2023-05-08T11:55:08.499Z,17.0712
2023-05-08T11:56:09.097Z,17.0612
2023-05-08T11:57:09.595Z,16.9387
2023-05-08T11:58:09.871Z,16.8986
2023-05-08T11:59:10.612Z,16.9025
2023-05-08T12:00:11.617Z,16.9831
2023-05-08T12:01:11.701Z,17.0947
2023-05-08T12:02:12.115Z,17.1056
2023-05-08T12:03:12.738Z,17.1075
2023-05-08T12:04:13.593Z,17.1623
2023-05-08T12:05:14.202Z,17.1949
2023-05-08T12:06:14.991Z,17.1812
2023-05-08T12:07:15.622Z,17.1598
2023-05-08T12:08:16.192Z,17.3213
2023-05-08T12:09:17.207Z,17.3893
2023-05-08T12:10:18.156Z,17.2334
2023-05-08T12:11:17.483Z,17.2480
2023-05-08T12:12:18.804Z,17.1011
2023-05-08T12:13:20.196Z,17.1422
2023-05-08T12:14:20.383Z,17.3170
2023-05-08T12:15:21.465Z,17.3884
2023-05-08T12:16:23.032Z,17.5142
2023-05-08T12:17:23.409Z,17.5201
2023-05-08T12:18:23.805Z,17.4537
2023-05-08T12:19:24.623Z,17.5034
2023-05-08T12:20:25.294Z,17.6572
2023-05-08T12:21:26.521Z,17.7285
2023-05-08T12:22:27.596Z,17.9563
2023-05-08T12:23:28.842Z,18.4976
2023-05-08T12:24:29.935Z,18.9934
2023-05-08T12:25:30.420Z,19.2100
2023-05-08T12:26:31.690Z,19.0797
2023-05-08T12:27:32.762Z,19.1936
2023-05-08T12:28:33.980Z,18.9245
2023-05-08T12:29:34.921Z,19.1904
2023-05-08T12:33:36.159Z,20.2311
2023-05-08T12:34:37.438Z,20.1095
2023-05-08T12:35:38.522Z,20.1790
2023-05-08T12:36:39.683Z,20.5128
2023-05-08T12:37:40.859Z,20.8518
2023-05-08T12:38:41.967Z,20.8677
2023-05-08T12:39:43.157Z,20.3818
2023-05-08T12:40:43.409Z,19.7014
2023-05-08T12:41:44.668Z,19.1484
2023-05-08T12:42:44.705Z,18.7608
2023-05-08T12:43:45.936Z,18.3948
2023-05-08T12:44:47.092Z,18.0971
2023-05-08T12:45:48.262Z,17.7520
2023-05-08T13:03:02.634Z,15.9934
2023-05-08T13:04:03.681Z,15.8615
2023-05-08T13:05:03.670Z,15.7485
2023-05-08T13:06:04.844Z,15.6203
2023-05-08T13:07:06.141Z,15.5451
2023-05-08T13:08:07.353Z,15.4438
2023-05-08T13:09:08.586Z,15.3894
2023-05-08T13:10:09.974Z,15.3225
2023-05-08T13:11:10.160Z,15.3086
2023-05-08T13:12:11.429Z,15.1800
2023-05-08T13:13:11.444Z,15.2239
2023-05-08T13:14:11.497Z,15.1765
2023-05-08T13:15:11.689Z,15.2022
2023-05-08T13:16:11.890Z,15.1651
2023-05-08T13:17:12.113Z,15.1375
2023-05-08T13:18:13.736Z,15.1510
2023-05-08T13:19:14.027Z,15.1200
2023-05-08T13:20:14.198Z,15.1450
2023-05-08T13:21:14.435Z,15.1307
2023-05-08T13:22:14.381Z,15.0430
2023-05-08T13:23:15.670Z,15.1341
2023-05-08T13:24:16.990Z,15.1905
2023-05-08T13:25:18.249Z,15.2637
2023-05-08T13:26:19.563Z,15.1569
2023-05-08T13:27:20.701Z,15.2427
2023-05-08T13:28:22.212Z,15.2717
2023-05-08T13:29:23.459Z,15.2599
2023-05-08T13:30:23.598Z,15.2024
2023-05-08T13:31:23.604Z,15.2497
2023-05-08T13:32:23.924Z,15.3315
2023-05-08T13:33:24.042Z,15.3401
2023-05-08T13:34:25.214Z,15.3031
2023-05-08T13:35:26.328Z,15.2695
2023-05-08T13:36:27.538Z,15.3407
2023-05-08T13:37:28.807Z,15.2426
2023-05-08T13:38:29.930Z,15.1853
2023-05-08T13:39:31.135Z,15.2261
2023-05-08T13:40:32.372Z,15.2387
2023-05-08T13:41:33.558Z,15.2000
2023-05-08T13:42:34.765Z,15.2310
2023-05-08T13:43:35.848Z,15.2031
2023-05-08T13:44:37.025Z,15.1429
2023-05-08T13:45:37.825Z,15.3033
2023-05-08T13:46:38.002Z,15.3208
2023-05-08T13:47:39.213Z,15.3146
2023-05-08T13:48:40.755Z,15.4799
2023-05-08T13:49:41.974Z,15.5162
2023-05-08T13:50:43.149Z,15.6807
2023-05-08T13:51:52.023Z,15.7970